sensor_id;sensor_type;location;lat;lon;timestamp;P1;durP1;ratioP1;P2;durP2;ratioP2
25972;SDS011;13765;51.166;4.466;2023-02-07T00:01:22;19.73;;;8.00;;
25972;SDS011;13765;51.166;4.466;2023-02-07T00:03:49;21.13;;;7.30;;
25972;SDS011;13765;51.166;4.466;2023-02-07T00:09:38;20.35;;;7.15;;
25972;SDS011;13765;51.166;4.466;2023-02-07T00:12:06;23.67;;;6.93;;
25972;SDS011;13765;51.166;4.466;2023-02-07T00:14:32;21.40;;;6.90;;
25972;SDS011;13765;51.166;4.466;2023-02-07T00:16:58;24.48;;;7.55;;
25972;SDS011;13765;51.166;4.466;2023-02-07T00:19:26;24.02;;;7.00;;
25972;SDS011;13765;51.166;4.466;2023-02-07T00:21:51;25.15;;;7.38;;
25972;SDS011;13765;51.166;4.466;2023-02-07T00:24:19;13.35;;;6.35;;
25972;SDS011;13765;51.166;4.466;2023-02-07T00:26:47;22.92;;;6.32;;
25972;SDS011;13765;51.166;4.466;2023-02-07T00:29:13;14.85;;;6.97;;
25972;SDS011;13765;51.166;4.466;2023-02-07T00:31:39;18.63;;;7.32;;
25972;SDS011;13765;51.166;4.466;2023-02-07T00:34:06;21.70;;;6.50;;
25972;SDS011;13765;51.166;4.466;2023-02-07T00:36:33;18.25;;;6.57;;
25972;SDS011;13765;51.166;4.466;2023-02-07T00:39:00;19.60;;;6.90;;
25972;SDS011;13765;51.166;4.466;2023-02-07T00:41:30;24.05;;;8.43;;
25972;SDS011;13765;51.166;4.466;2023-02-07T00:43:56;21.10;;;6.90;;
25972;SDS011;13765;51.166;4.466;2023-02-07T00:46:22;20.95;;;8.02;;
25972;SDS011;13765;51.166;4.466;2023-02-07T00:48:48;25.95;;;8.52;;
25972;SDS011;13765;51.166;4.466;2023-02-07T00:51:14;24.90;;;8.07;;
25972;SDS011;13765;51.166;4.466;2023-02-07T00:53:42;37.30;;;9.07;;
25972;SDS011;13765;51.166;4.466;2023-02-07T00:56:09;18.58;;;6.68;;
25972;SDS011;13765;51.166;4.466;2023-02-07T00:58:36;18.92;;;9.10;;
25972;SDS011;13765;51.166;4.466;2023-02-07T01:01:04;19.10;;;9.23;;
25972;SDS011;13765;51.166;4.466;2023-02-07T01:03:30;18.55;;;8.23;;
25972;SDS011;13765;51.166;4.466;2023-02-07T01:05:58;21.48;;;7.95;;
25972;SDS011;13765;51.166;4.466;2023-02-07T01:08:29;21.77;;;8.60;;
25972;SDS011;13765;51.166;4.466;2023-02-07T01:10:58;21.42;;;7.57;;
25972;SDS011;13765;51.166;4.466;2023-02-07T01:13:29;24.77;;;10.20;;
25972;SDS011;13765;51.166;4.466;2023-02-07T01:15:57;21.02;;;7.93;;
25972;SDS011;13765;51.166;4.466;2023-02-07T01:18:25;20.92;;;8.13;;
25972;SDS011;13765;51.166;4.466;2023-02-07T01:20:51;20.73;;;9.32;;
25972;SDS011;13765;51.166;4.466;2023-02-07T01:23:17;22.52;;;8.13;;
25972;SDS011;13765;51.166;4.466;2023-02-07T01:25:45;22.70;;;7.55;;
25972;SDS011;13765;51.166;4.466;2023-02-07T01:28:13;19.58;;;6.63;;
25972;SDS011;13765;51.166;4.466;2023-02-07T01:30:42;21.50;;;7.82;;
25972;SDS011;13765;51.166;4.466;2023-02-07T01:33:09;21.17;;;8.25;;
25972;SDS011;13765;51.166;4.466;2023-02-07T01:35:37;24.83;;;7.30;;
25972;SDS011;13765;51.166;4.466;2023-02-07T01:38:04;25.73;;;7.22;;
25972;SDS011;13765;51.166;4.466;2023-02-07T01:40:34;25.15;;;7.13;;
25972;SDS011;13765;51.166;4.466;2023-02-07T01:43:01;20.15;;;7.55;;
25972;SDS011;13765;51.166;4.466;2023-02-07T01:45:31;17.13;;;7.07;;
25972;SDS011;13765;51.166;4.466;2023-02-07T01:48:01;17.63;;;6.40;;
25972;SDS011;13765;51.166;4.466;2023-02-07T01:50:31;25.70;;;7.72;;
25972;SDS011;13765;51.166;4.466;2023-02-07T01:52:57;18.25;;;6.80;;
25972;SDS011;13765;51.166;4.466;2023-02-07T01:55:27;20.00;;;6.55;;
25972;SDS011;13765;51.166;4.466;2023-02-07T01:57:55;20.17;;;7.28;;
25972;SDS011;13765;51.166;4.466;2023-02-07T02:00:25;20.75;;;7.97;;
25972;SDS011;13765;51.166;4.466;2023-02-07T02:02:54;24.80;;;7.47;;
25972;SDS011;13765;51.166;4.466;2023-02-07T02:05:22;24.73;;;6.63;;
25972;SDS011;13765;51.166;4.466;2023-02-07T02:07:51;21.85;;;6.60;;
25972;SDS011;13765;51.166;4.466;2023-02-07T02:10:18;28.90;;;8.55;;
25972;SDS011;13765;51.166;4.466;2023-02-07T02:18:00;19.15;;;7.70;;
25972;SDS011;13765;51.166;4.466;2023-02-07T02:32:12;23.25;;;7.15;;
25972;SDS011;13765;51.166;4.466;2023-02-07T02:40:32;18.55;;;7.10;;
25972;SDS011;13765;51.166;4.466;2023-02-07T02:46:17;22.25;;;7.70;;
25972;SDS011;13765;51.166;4.466;2023-02-07T02:48:52;17.55;;;6.80;;
25972;SDS011;13765;51.166;4.466;2023-02-07T02:51:21;22.63;;;8.57;;
25972;SDS011;13765;51.166;4.466;2023-02-07T02:53:50;22.20;;;8.73;;
25972;SDS011;13765;51.166;4.466;2023-02-07T02:56:24;28.75;;;11.20;;
25972;SDS011;13765;51.166;4.466;2023-02-07T03:22:49;23.25;;;7.93;;
25972;SDS011;13765;51.166;4.466;2023-02-07T03:25:20;30.95;;;8.27;;
25972;SDS011;13765;51.166;4.466;2023-02-07T03:27:48;27.13;;;8.65;;
25972;SDS011;13765;51.166;4.466;2023-02-07T03:30:19;25.02;;;9.85;;
25972;SDS011;13765;51.166;4.466;2023-02-07T03:32:50;23.98;;;9.32;;
25972;SDS011;13765;51.166;4.466;2023-02-07T03:35:27;20.00;;;8.55;;
25972;SDS011;13765;51.166;4.466;2023-02-07T03:38:17;23.98;;;8.93;;
25972;SDS011;13765;51.166;4.466;2023-02-07T03:40:45;26.75;;;8.13;;
25972;SDS011;13765;51.166;4.466;2023-02-07T03:43:20;29.80;;;8.93;;
25972;SDS011;13765;51.166;4.466;2023-02-07T03:45:49;21.02;;;8.63;;
25972;SDS011;13765;51.166;4.466;2023-02-07T03:48:14;23.90;;;8.88;;
25972;SDS011;13765;51.166;4.466;2023-02-07T03:50:40;22.80;;;9.57;;
25972;SDS011;13765;51.166;4.466;2023-02-07T03:53:06;20.67;;;8.65;;
25972;SDS011;13765;51.166;4.466;2023-02-07T03:55:36;22.80;;;9.55;;
25972;SDS011;13765;51.166;4.466;2023-02-07T03:58:02;21.77;;;9.27;;
25972;SDS011;13765;51.166;4.466;2023-02-07T04:00:31;24.08;;;9.18;;
25972;SDS011;13765;51.166;4.466;2023-02-07T04:02:57;29.65;;;8.55;;
25972;SDS011;13765;51.166;4.466;2023-02-07T04:05:23;20.02;;;8.68;;
25972;SDS011;13765;51.166;4.466;2023-02-07T04:07:51;18.70;;;8.50;;
25972;SDS011;13765;51.166;4.466;2023-02-07T04:10:16;18.67;;;9.23;;
25972;SDS011;13765;51.166;4.466;2023-02-07T04:12:42;16.55;;;7.45;;
25972;SDS011;13765;51.166;4.466;2023-02-07T04:15:08;18.45;;;6.03;;
25972;SDS011;13765;51.166;4.466;2023-02-07T04:17:34;19.77;;;8.48;;
25972;SDS011;13765;51.166;4.466;2023-02-07T04:20:00;22.90;;;9.93;;
25972;SDS011;13765;51.166;4.466;2023-02-07T04:22:26;27.85;;;10.23;;
25972;SDS011;13765;51.166;4.466;2023-02-07T04:24:52;26.80;;;8.32;;
25972;SDS011;13765;51.166;4.466;2023-02-07T04:27:20;19.38;;;7.82;;
25972;SDS011;13765;51.166;4.466;2023-02-07T04:29:48;17.98;;;8.80;;
25972;SDS011;13765;51.166;4.466;2023-02-07T04:32:22;31.55;;;9.38;;
25972;SDS011;13765;51.166;4.466;2023-02-07T04:34:48;21.20;;;9.75;;
25972;SDS011;13765;51.166;4.466;2023-02-07T04:37:16;22.13;;;9.25;;
25972;SDS011;13765;51.166;4.466;2023-02-07T04:39:44;35.53;;;10.07;;
25972;SDS011;13765;51.166;4.466;2023-02-07T04:42:14;21.65;;;9.52;;
25972;SDS011;13765;51.166;4.466;2023-02-07T04:44:40;25.33;;;9.13;;
25972;SDS011;13765;51.166;4.466;2023-02-07T04:47:06;18.25;;;6.15;;
25972;SDS011;13765;51.166;4.466;2023-02-07T04:49:31;24.08;;;9.95;;
25972;SDS011;13765;51.166;4.466;2023-02-07T04:51:57;25.58;;;9.63;;
25972;SDS011;13765;51.166;4.466;2023-02-07T04:54:25;25.13;;;10.00;;
25972;SDS011;13765;51.166;4.466;2023-02-07T04:56:51;21.17;;;7.70;;
25972;SDS011;13765;51.166;4.466;2023-02-07T04:59:16;28.42;;;8.55;;
25972;SDS011;13765;51.166;4.466;2023-02-07T05:01:42;24.38;;;9.27;;
25972;SDS011;13765;51.166;4.466;2023-02-07T05:04:07;21.10;;;9.02;;
25972;SDS011;13765;51.166;4.466;2023-02-07T05:06:33;20.20;;;7.85;;
25972;SDS011;13765;51.166;4.466;2023-02-07T05:09:02;26.83;;;10.68;;
25972;SDS011;13765;51.166;4.466;2023-02-07T05:11:27;23.20;;;8.20;;
25972;SDS011;13765;51.166;4.466;2023-02-07T05:13:53;19.00;;;8.40;;
25972;SDS011;13765;51.166;4.466;2023-02-07T05:16:23;24.23;;;9.13;;
25972;SDS011;13765;51.166;4.466;2023-02-07T05:18:51;27.92;;;9.23;;
25972;SDS011;13765;51.166;4.466;2023-02-07T05:21:17;25.48;;;10.40;;
25972;SDS011;13765;51.166;4.466;2023-02-07T05:23:42;22.38;;;9.85;;
25972;SDS011;13765;51.166;4.466;2023-02-07T05:26:08;26.20;;;8.35;;
25972;SDS011;13765;51.166;4.466;2023-02-07T05:28:36;19.45;;;8.73;;
25972;SDS011;13765;51.166;4.466;2023-02-07T05:31:02;23.00;;;8.82;;
25972;SDS011;13765;51.166;4.466;2023-02-07T05:33:30;19.85;;;7.57;;
25972;SDS011;13765;51.166;4.466;2023-02-07T05:35:56;25.85;;;9.30;;
25972;SDS011;13765;51.166;4.466;2023-02-07T05:38:25;24.33;;;10.93;;
25972;SDS011;13765;51.166;4.466;2023-02-07T05:40:53;23.70;;;9.20;;
25972;SDS011;13765;51.166;4.466;2023-02-07T05:43:19;24.52;;;9.80;;
25972;SDS011;13765;51.166;4.466;2023-02-07T05:45:45;24.52;;;11.73;;
25972;SDS011;13765;51.166;4.466;2023-02-07T05:48:10;20.85;;;10.85;;
25972;SDS011;13765;51.166;4.466;2023-02-07T05:50:39;24.67;;;9.98;;
25972;SDS011;13765;51.166;4.466;2023-02-07T05:53:05;30.45;;;13.38;;
25972;SDS011;13765;51.166;4.466;2023-02-07T05:55:31;22.60;;;9.32;;
25972;SDS011;13765;51.166;4.466;2023-02-07T05:58:00;25.23;;;9.15;;
25972;SDS011;13765;51.166;4.466;2023-02-07T06:00:28;44.65;;;11.20;;
25972;SDS011;13765;51.166;4.466;2023-02-07T06:02:56;41.30;;;10.45;;
25972;SDS011;13765;51.166;4.466;2023-02-07T06:05:24;30.63;;;9.95;;
25972;SDS011;13765;51.166;4.466;2023-02-07T06:07:55;25.35;;;9.52;;
25972;SDS011;13765;51.166;4.466;2023-02-07T06:10:21;20.88;;;9.40;;
25972;SDS011;13765;51.166;4.466;2023-02-07T06:12:49;28.38;;;10.40;;
25972;SDS011;13765;51.166;4.466;2023-02-07T06:15:17;27.50;;;10.73;;
25972;SDS011;13765;51.166;4.466;2023-02-07T06:17:44;25.10;;;9.57;;
25972;SDS011;13765;51.166;4.466;2023-02-07T06:20:11;24.50;;;10.80;;
25972;SDS011;13765;51.166;4.466;2023-02-07T06:22:41;29.02;;;9.57;;
25972;SDS011;13765;51.166;4.466;2023-02-07T06:25:09;40.08;;;10.35;;
25972;SDS011;13765;51.166;4.466;2023-02-07T06:27:36;28.75;;;10.27;;
25972;SDS011;13765;51.166;4.466;2023-02-07T06:30:03;28.40;;;8.82;;
25972;SDS011;13765;51.166;4.466;2023-02-07T06:32:29;28.23;;;10.55;;
25972;SDS011;13765;51.166;4.466;2023-02-07T06:34:55;25.20;;;9.40;;
25972;SDS011;13765;51.166;4.466;2023-02-07T06:37:20;27.25;;;10.50;;
25972;SDS011;13765;51.166;4.466;2023-02-07T06:39:48;21.70;;;8.95;;
25972;SDS011;13765;51.166;4.466;2023-02-07T06:42:16;34.65;;;10.55;;
25972;SDS011;13765;51.166;4.466;2023-02-07T06:44:46;25.75;;;8.48;;
25972;SDS011;13765;51.166;4.466;2023-02-07T06:47:16;24.05;;;9.13;;
25972;SDS011;13765;51.166;4.466;2023-02-07T06:49:44;18.50;;;8.65;;
25972;SDS011;13765;51.166;4.466;2023-02-07T06:52:11;24.95;;;9.23;;
25972;SDS011;13765;51.166;4.466;2023-02-07T06:54:39;24.83;;;9.98;;
25972;SDS011;13765;51.166;4.466;2023-02-07T06:57:07;24.55;;;9.35;;
25972;SDS011;13765;51.166;4.466;2023-02-07T06:59:33;17.60;;;7.35;;
25972;SDS011;13765;51.166;4.466;2023-02-07T07:01:59;23.08;;;9.27;;
25972;SDS011;13765;51.166;4.466;2023-02-07T07:04:25;33.20;;;11.05;;
25972;SDS011;13765;51.166;4.466;2023-02-07T07:06:53;22.48;;;10.68;;
25972;SDS011;13765;51.166;4.466;2023-02-07T07:09:26;41.70;;;14.18;;
25972;SDS011;13765;51.166;4.466;2023-02-07T07:11:58;28.23;;;11.27;;
25972;SDS011;13765;51.166;4.466;2023-02-07T07:14:24;27.42;;;10.77;;
25972;SDS011;13765;51.166;4.466;2023-02-07T07:16:52;24.58;;;11.02;;
25972;SDS011;13765;51.166;4.466;2023-02-07T07:19:21;20.45;;;8.85;;
25972;SDS011;13765;51.166;4.466;2023-02-07T07:21:47;17.88;;;7.47;;
25972;SDS011;13765;51.166;4.466;2023-02-07T07:24:12;32.33;;;11.20;;
25972;SDS011;13765;51.166;4.466;2023-02-07T07:26:43;22.30;;;9.48;;
25972;SDS011;13765;51.166;4.466;2023-02-07T07:29:11;26.02;;;10.02;;
25972;SDS011;13765;51.166;4.466;2023-02-07T07:31:36;24.60;;;10.40;;
25972;SDS011;13765;51.166;4.466;2023-02-07T07:34:02;22.88;;;8.52;;
25972;SDS011;13765;51.166;4.466;2023-02-07T07:36:29;30.52;;;9.90;;
25972;SDS011;13765;51.166;4.466;2023-02-07T07:38:55;23.98;;;8.80;;
25972;SDS011;13765;51.166;4.466;2023-02-07T07:41:21;34.35;;;11.20;;
25972;SDS011;13765;51.166;4.466;2023-02-07T07:43:47;25.27;;;10.00;;
25972;SDS011;13765;51.166;4.466;2023-02-07T07:46:13;28.98;;;10.85;;
25972;SDS011;13765;51.166;4.466;2023-02-07T07:48:39;21.40;;;8.45;;
25972;SDS011;13765;51.166;4.466;2023-02-07T07:51:04;23.38;;;9.98;;
25972;SDS011;13765;51.166;4.466;2023-02-07T07:53:30;24.48;;;10.48;;
25972;SDS011;13765;51.166;4.466;2023-02-07T07:55:56;22.60;;;8.60;;
25972;SDS011;13765;51.166;4.466;2023-02-07T07:58:24;22.38;;;7.75;;
25972;SDS011;13765;51.166;4.466;2023-02-07T08:00:50;28.25;;;9.95;;
25972;SDS011;13765;51.166;4.466;2023-02-07T08:03:16;30.63;;;10.13;;
25972;SDS011;13765;51.166;4.466;2023-02-07T08:05:46;24.88;;;9.68;;
25972;SDS011;13765;51.166;4.466;2023-02-07T08:08:14;26.35;;;9.18;;
25972;SDS011;13765;51.166;4.466;2023-02-07T08:10:41;29.10;;;10.77;;
25972;SDS011;13765;51.166;4.466;2023-02-07T08:13:09;25.83;;;9.30;;
25972;SDS011;13765;51.166;4.466;2023-02-07T08:15:34;27.15;;;10.00;;
25972;SDS011;13765;51.166;4.466;2023-02-07T08:18:03;24.75;;;9.57;;
25972;SDS011;13765;51.166;4.466;2023-02-07T08:20:29;26.48;;;9.40;;
25972;SDS011;13765;51.166;4.466;2023-02-07T08:22:58;32.13;;;10.57;;
25972;SDS011;13765;51.166;4.466;2023-02-07T08:25:26;40.58;;;11.73;;
25972;SDS011;13765;51.166;4.466;2023-02-07T08:27:52;28.65;;;10.57;;
25972;SDS011;13765;51.166;4.466;2023-02-07T08:30:20;26.35;;;12.13;;
25972;SDS011;13765;51.166;4.466;2023-02-07T08:32:46;28.40;;;12.00;;
25972;SDS011;13765;51.166;4.466;2023-02-07T08:35:12;26.73;;;11.68;;
25972;SDS011;13765;51.166;4.466;2023-02-07T08:37:38;28.98;;;11.93;;
25972;SDS011;13765;51.166;4.466;2023-02-07T08:40:06;32.17;;;12.27;;
25972;SDS011;13765;51.166;4.466;2023-02-07T08:42:36;27.67;;;10.05;;
25972;SDS011;13765;51.166;4.466;2023-02-07T08:45:02;30.60;;;10.93;;
25972;SDS011;13765;51.166;4.466;2023-02-07T08:47:32;32.90;;;11.73;;
25972;SDS011;13765;51.166;4.466;2023-02-07T08:49:57;35.50;;;13.75;;
25972;SDS011;13765;51.166;4.466;2023-02-07T08:52:25;31.65;;;13.80;;
25972;SDS011;13765;51.166;4.466;2023-02-07T08:54:53;35.47;;;10.68;;
25972;SDS011;13765;51.166;4.466;2023-02-07T08:57:23;38.97;;;11.02;;
25972;SDS011;13765;51.166;4.466;2023-02-07T08:59:50;28.08;;;10.38;;
25972;SDS011;13765;51.166;4.466;2023-02-07T09:02:16;31.30;;;13.05;;
25972;SDS011;13765;51.166;4.466;2023-02-07T09:04:42;36.30;;;13.70;;
25972;SDS011;13765;51.166;4.466;2023-02-07T09:07:08;31.92;;;13.55;;
25972;SDS011;13765;51.166;4.466;2023-02-07T09:09:37;51.50;;;16.13;;
25972;SDS011;13765;51.166;4.466;2023-02-07T09:12:04;47.83;;;13.35;;
25972;SDS011;13765;51.166;4.466;2023-02-07T09:14:30;31.42;;;11.32;;
25972;SDS011;13765;51.166;4.466;2023-02-07T09:16:59;31.98;;;12.65;;
25972;SDS011;13765;51.166;4.466;2023-02-07T09:19:24;29.70;;;11.07;;
25972;SDS011;13765;51.166;4.466;2023-02-07T09:21:50;31.40;;;13.20;;
25972;SDS011;13765;51.166;4.466;2023-02-07T09:24:16;33.67;;;11.05;;
25972;SDS011;13765;51.166;4.466;2023-02-07T09:26:41;30.30;;;12.85;;
25972;SDS011;13765;51.166;4.466;2023-02-07T09:29:11;33.65;;;11.75;;
25972;SDS011;13765;51.166;4.466;2023-02-07T09:31:38;23.58;;;11.05;;
25972;SDS011;13765;51.166;4.466;2023-02-07T09:34:06;26.67;;;12.18;;
25972;SDS011;13765;51.166;4.466;2023-02-07T09:36:34;29.00;;;11.93;;
25972;SDS011;13765;51.166;4.466;2023-02-07T09:39:03;28.75;;;11.50;;
25972;SDS011;13765;51.166;4.466;2023-02-07T09:46:59;26.75;;;10.68;;
25972;SDS011;13765;51.166;4.466;2023-02-07T09:52:28;30.92;;;10.55;;
25972;SDS011;13765;51.166;4.466;2023-02-07T09:54:57;26.10;;;9.43;;
25972;SDS011;13765;51.166;4.466;2023-02-07T09:57:34;24.83;;;10.05;;
25972;SDS011;13765;51.166;4.466;2023-02-07T10:00:06;24.55;;;10.98;;
25972;SDS011;13765;51.166;4.466;2023-02-07T10:03:18;27.73;;;11.45;;
25972;SDS011;13765;51.166;4.466;2023-02-07T10:05:48;27.85;;;9.63;;
25972;SDS011;13765;51.166;4.466;2023-02-07T10:08:19;26.15;;;11.35;;
25972;SDS011;13765;51.166;4.466;2023-02-07T10:13:31;23.33;;;9.02;;
25972;SDS011;13765;51.166;4.466;2023-02-07T10:18:47;23.27;;;9.32;;
25972;SDS011;13765;51.166;4.466;2023-02-07T10:26:45;30.48;;;8.77;;
25972;SDS011;13765;51.166;4.466;2023-02-07T10:30:02;23.23;;;8.65;;
25972;SDS011;13765;51.166;4.466;2023-02-07T10:32:08;29.10;;;8.95;;
25972;SDS011;13765;51.166;4.466;2023-02-07T10:34:43;21.67;;;9.70;;
25972;SDS011;13765;51.166;4.466;2023-02-07T10:37:18;22.60;;;7.55;;
25972;SDS011;13765;51.166;4.466;2023-02-07T10:42:29;23.35;;;7.95;;
25972;SDS011;13765;51.166;4.466;2023-02-07T10:44:57;23.80;;;8.25;;
25972;SDS011;13765;51.166;4.466;2023-02-07T10:47:23;21.73;;;7.43;;
25972;SDS011;13765;51.166;4.466;2023-02-07T10:49:53;23.17;;;7.90;;
25972;SDS011;13765;51.166;4.466;2023-02-07T10:54:59;21.67;;;9.23;;
25972;SDS011;13765;51.166;4.466;2023-02-07T10:57:27;23.20;;;8.82;;
25972;SDS011;13765;51.166;4.466;2023-02-07T11:00:03;25.27;;;9.40;;
25972;SDS011;13765;51.166;4.466;2023-02-07T11:04:59;23.48;;;9.20;;
25972;SDS011;13765;51.166;4.466;2023-02-07T11:07:29;21.58;;;8.50;;
25972;SDS011;13765;51.166;4.466;2023-02-07T11:10:16;26.65;;;6.40;;
25972;SDS011;13765;51.166;4.466;2023-02-07T11:12:48;17.92;;;7.60;;
25972;SDS011;13765;51.166;4.466;2023-02-07T11:15:19;15.70;;;6.57;;
25972;SDS011;13765;51.166;4.466;2023-02-07T11:17:59;21.73;;;7.07;;
25972;SDS011;13765;51.166;4.466;2023-02-07T11:20:29;20.20;;;6.90;;
25972;SDS011;13765;51.166;4.466;2023-02-07T11:22:57;24.55;;;7.00;;
25972;SDS011;13765;51.166;4.466;2023-02-07T11:25:45;18.08;;;5.70;;
25972;SDS011;13765;51.166;4.466;2023-02-07T11:30:43;17.42;;;6.38;;
25972;SDS011;13765;51.166;4.466;2023-02-07T11:33:18;23.08;;;5.55;;
25972;SDS011;13765;51.166;4.466;2023-02-07T11:38:57;17.05;;;6.25;;
25972;SDS011;13765;51.166;4.466;2023-02-07T11:41:27;16.05;;;5.40;;
25972;SDS011;13765;51.166;4.466;2023-02-07T11:43:56;24.92;;;8.35;;
25972;SDS011;13765;51.166;4.466;2023-02-07T11:46:33;21.10;;;7.65;;
25972;SDS011;13765;51.166;4.466;2023-02-07T11:49:06;18.73;;;5.82;;
25972;SDS011;13765;51.166;4.466;2023-02-07T11:51:44;15.00;;;5.80;;
25972;SDS011;13765;51.166;4.466;2023-02-07T11:54:16;13.55;;;6.22;;
25972;SDS011;13765;51.166;4.466;2023-02-07T11:56:47;23.48;;;6.63;;
25972;SDS011;13765;51.166;4.466;2023-02-07T11:59:20;16.80;;;5.30;;
25972;SDS011;13765;51.166;4.466;2023-02-07T12:01:51;22.30;;;6.32;;
25972;SDS011;13765;51.166;4.466;2023-02-07T12:05:06;14.90;;;5.20;;
25972;SDS011;13765;51.166;4.466;2023-02-07T12:07:32;12.45;;;5.10;;
25972;SDS011;13765;51.166;4.466;2023-02-07T12:10:03;19.65;;;6.65;;
25972;SDS011;13765;51.166;4.466;2023-02-07T12:15:08;22.15;;;5.97;;
25972;SDS011;13765;51.166;4.466;2023-02-07T12:17:57;16.48;;;5.82;;
25972;SDS011;13765;51.166;4.466;2023-02-07T12:20:28;18.15;;;6.10;;
25972;SDS011;13765;51.166;4.466;2023-02-07T12:23:06;19.45;;;5.82;;
25972;SDS011;13765;51.166;4.466;2023-02-07T12:25:49;16.55;;;5.95;;
25972;SDS011;13765;51.166;4.466;2023-02-07T12:28:36;14.45;;;5.40;;
25972;SDS011;13765;51.166;4.466;2023-02-07T12:31:15;18.70;;;5.93;;
25972;SDS011;13765;51.166;4.466;2023-02-07T12:36:45;13.30;;;5.50;;
25972;SDS011;13765;51.166;4.466;2023-02-07T12:39:33;18.48;;;6.05;;
25972;SDS011;13765;51.166;4.466;2023-02-07T12:42:14;11.52;;;4.05;;
25972;SDS011;13765;51.166;4.466;2023-02-07T12:44:52;14.75;;;6.05;;
25972;SDS011;13765;51.166;4.466;2023-02-07T12:47:32;14.90;;;5.57;;
25972;SDS011;13765;51.166;4.466;2023-02-07T12:50:15;13.68;;;4.93;;
25972;SDS011;13765;51.166;4.466;2023-02-07T13:04:09;17.23;;;6.20;;
25972;SDS011;13765;51.166;4.466;2023-02-07T13:06:59;21.25;;;5.85;;
25972;SDS011;13765;51.166;4.466;2023-02-07T13:09:39;15.40;;;5.63;;
25972;SDS011;13765;51.166;4.466;2023-02-07T13:18:05;14.25;;;5.97;;
25972;SDS011;13765;51.166;4.466;2023-02-07T13:21:09;14.68;;;5.38;;
25972;SDS011;13765;51.166;4.466;2023-02-07T13:23:39;14.13;;;5.20;;
25972;SDS011;13765;51.166;4.466;2023-02-07T13:26:28;10.05;;;4.07;;
25972;SDS011;13765;51.166;4.466;2023-02-07T13:29:02;18.45;;;5.88;;
25972;SDS011;13765;51.166;4.466;2023-02-07T13:31:53;12.50;;;4.70;;
25972;SDS011;13765;51.166;4.466;2023-02-07T13:34:35;13.23;;;5.25;;
25972;SDS011;13765;51.166;4.466;2023-02-07T13:37:16;14.75;;;5.20;;
25972;SDS011;13765;51.166;4.466;2023-02-07T13:57:53;13.32;;;5.25;;
25972;SDS011;13765;51.166;4.466;2023-02-07T14:03:21;14.10;;;4.88;;
25972;SDS011;13765;51.166;4.466;2023-02-07T14:05:55;20.70;;;6.10;;
25972;SDS011;13765;51.166;4.466;2023-02-07T14:08:41;14.68;;;4.63;;
25972;SDS011;13765;51.166;4.466;2023-02-07T14:11:21;17.38;;;5.22;;
25972;SDS011;13765;51.166;4.466;2023-02-07T14:14:02;12.65;;;5.25;;
25972;SDS011;13765;51.166;4.466;2023-02-07T14:16:45;13.57;;;5.32;;
25972;SDS011;13765;51.166;4.466;2023-02-07T14:27:27;10.48;;;4.57;;
25972;SDS011;13765;51.166;4.466;2023-02-07T14:36:01;11.63;;;4.38;;
25972;SDS011;13765;51.166;4.466;2023-02-07T14:39:00;8.23;;;3.85;;
25972;SDS011;13765;51.166;4.466;2023-02-07T14:41:32;13.48;;;5.35;;
25972;SDS011;13765;51.166;4.466;2023-02-07T14:44:00;12.80;;;4.35;;
25972;SDS011;13765;51.166;4.466;2023-02-07T14:46:31;12.48;;;4.93;;
25972;SDS011;13765;51.166;4.466;2023-02-07T14:51:46;12.07;;;4.03;;
25972;SDS011;13765;51.166;4.466;2023-02-07T15:02:55;15.15;;;4.35;;
25972;SDS011;13765;51.166;4.466;2023-02-07T15:10:43;13.98;;;4.68;;
25972;SDS011;13765;51.166;4.466;2023-02-07T15:13:17;15.73;;;5.28;;
25972;SDS011;13765;51.166;4.466;2023-02-07T15:18:22;15.55;;;4.93;;
25972;SDS011;13765;51.166;4.466;2023-02-07T15:23:22;17.52;;;5.82;;
25972;SDS011;13765;51.166;4.466;2023-02-07T15:25:52;17.50;;;5.55;;
25972;SDS011;13765;51.166;4.466;2023-02-07T15:28:25;17.92;;;4.63;;
25972;SDS011;13765;51.166;4.466;2023-02-07T15:30:56;15.43;;;5.38;;
25972;SDS011;13765;51.166;4.466;2023-02-07T15:33:25;14.60;;;6.20;;
25972;SDS011;13765;51.166;4.466;2023-02-07T15:35:52;16.77;;;6.25;;
25972;SDS011;13765;51.166;4.466;2023-02-07T15:38:25;22.58;;;6.40;;
25972;SDS011;13765;51.166;4.466;2023-02-07T15:40:52;17.92;;;7.25;;
25972;SDS011;13765;51.166;4.466;2023-02-07T15:43:28;18.15;;;6.30;;
25972;SDS011;13765;51.166;4.466;2023-02-07T15:46:00;20.38;;;6.03;;
25972;SDS011;13765;51.166;4.466;2023-02-07T15:48:46;18.38;;;6.85;;
25972;SDS011;13765;51.166;4.466;2023-02-07T15:51:11;14.95;;;5.13;;
25972;SDS011;13765;51.166;4.466;2023-02-07T15:53:38;13.77;;;6.30;;
25972;SDS011;13765;51.166;4.466;2023-02-07T15:56:04;21.50;;;6.13;;
25972;SDS011;13765;51.166;4.466;2023-02-07T15:58:32;17.08;;;5.82;;
25972;SDS011;13765;51.166;4.466;2023-02-07T16:01:04;13.68;;;4.85;;
25972;SDS011;13765;51.166;4.466;2023-02-07T16:03:43;14.98;;;6.00;;
25972;SDS011;13765;51.166;4.466;2023-02-07T16:06:17;17.75;;;6.00;;
25972;SDS011;13765;51.166;4.466;2023-02-07T16:08:45;15.70;;;5.60;;
25972;SDS011;13765;51.166;4.466;2023-02-07T16:16:50;18.42;;;5.57;;
25972;SDS011;13765;51.166;4.466;2023-02-07T16:19:27;15.02;;;5.55;;
25972;SDS011;13765;51.166;4.466;2023-02-07T16:22:04;12.30;;;4.65;;
25972;SDS011;13765;51.166;4.466;2023-02-07T16:24:39;20.75;;;5.50;;
25972;SDS011;13765;51.166;4.466;2023-02-07T16:27:10;21.48;;;6.88;;
25972;SDS011;13765;51.166;4.466;2023-02-07T16:29:41;20.60;;;7.25;;
25972;SDS011;13765;51.166;4.466;2023-02-07T16:32:08;18.55;;;6.50;;
25972;SDS011;13765;51.166;4.466;2023-02-07T16:34:35;19.05;;;6.30;;
25972;SDS011;13765;51.166;4.466;2023-02-07T16:37:03;15.63;;;5.05;;
25972;SDS011;13765;51.166;4.466;2023-02-07T16:39:29;17.75;;;5.65;;
25972;SDS011;13765;51.166;4.466;2023-02-07T16:41:55;12.50;;;5.40;;
25972;SDS011;13765;51.166;4.466;2023-02-07T16:44:26;15.43;;;5.53;;
25972;SDS011;13765;51.166;4.466;2023-02-07T16:46:57;15.30;;;5.05;;
25972;SDS011;13765;51.166;4.466;2023-02-07T16:49:23;13.88;;;4.95;;
25972;SDS011;13765;51.166;4.466;2023-02-07T16:51:56;12.82;;;5.32;;
25972;SDS011;13765;51.166;4.466;2023-02-07T16:54:25;20.60;;;6.40;;
25972;SDS011;13765;51.166;4.466;2023-02-07T16:56:56;17.60;;;5.55;;
25972;SDS011;13765;51.166;4.466;2023-02-07T16:59:25;17.13;;;5.03;;
25972;SDS011;13765;51.166;4.466;2023-02-07T17:01:51;13.88;;;5.00;;
25972;SDS011;13765;51.166;4.466;2023-02-07T17:04:18;12.43;;;4.68;;
25972;SDS011;13765;51.166;4.466;2023-02-07T17:06:44;17.20;;;5.85;;
25972;SDS011;13765;51.166;4.466;2023-02-07T17:09:18;14.98;;;5.78;;
25972;SDS011;13765;51.166;4.466;2023-02-07T17:11:45;17.10;;;5.97;;
25972;SDS011;13765;51.166;4.466;2023-02-07T17:14:10;18.77;;;5.72;;
25972;SDS011;13765;51.166;4.466;2023-02-07T17:16:36;14.77;;;6.20;;
25972;SDS011;13765;51.166;4.466;2023-02-07T17:19:09;15.27;;;5.93;;
25972;SDS011;13765;51.166;4.466;2023-02-07T17:21:39;16.25;;;6.18;;
25972;SDS011;13765;51.166;4.466;2023-02-07T17:24:06;15.93;;;5.55;;
25972;SDS011;13765;51.166;4.466;2023-02-07T17:26:33;17.63;;;6.03;;
25972;SDS011;13765;51.166;4.466;2023-02-07T17:29:02;19.50;;;7.15;;
25972;SDS011;13765;51.166;4.466;2023-02-07T17:31:31;17.45;;;6.28;;
25972;SDS011;13765;51.166;4.466;2023-02-07T17:33:59;17.55;;;6.00;;
25972;SDS011;13765;51.166;4.466;2023-02-07T17:36:25;20.52;;;5.78;;
25972;SDS011;13765;51.166;4.466;2023-02-07T17:38:53;15.82;;;6.32;;